sensor_id;sensor_type;location;lat;lon;timestamp;pressure;altitude;pressure_sealevel;temperature
60003;BMP280;46322;52.018;8.702;2023-05-20T00:03:42;71455.81;;;-144.30
60003;BMP280;46322;52.018;8.702;2023-05-20T00:08:42;71455.81;;;-144.30
60003;BMP280;46322;52.018;8.702;2023-05-20T00:13:43;71455.81;;;-144.30
60003;BMP280;46322;52.018;8.702;2023-05-20T00:18:44;71455.81;;;-144.30
60003;BMP280;46322;52.018;8.702;2023-05-20T00:23:44;71455.81;;;-144.30
60003;BMP280;46322;52.018;8.702;2023-05-20T00:28:44;71455.81;;;-144.30
60003;BMP280;46322;52.018;8.702;2023-05-20T00:33:44;71455.81;;;-144.30
60003;BMP280;46322;52.018;8.702;2023-05-20T00:38:44;71455.81;;;-144.30
60003;BMP280;46322;52.018;8.702;2023-05-20T00:43:44;71455.81;;;-144.30
60003;BMP280;46322;52.018;8.702;2023-05-20T00:48:44;71455.81;;;-144.30
60003;BMP280;46322;52.018;8.702;2023-05-20T00:53:45;71455.81;;;-144.30
60003;BMP280;46322;52.018;8.702;2023-05-20T00:58:45;71455.81;;;-144.30
60003;BMP280;46322;52.018;8.702;2023-05-20T01:03:45;71455.81;;;-144.30
60003;BMP280;46322;52.018;8.702;2023-05-20T01:08:45;71455.81;;;-144.30
60003;BMP280;46322;52.018;8.702;2023-05-20T01:13:46;71455.81;;;-144.30
60003;BMP280;46322;52.018;8.702;2023-05-20T01:18:48;71455.81;;;-144.30
60003;BMP280;46322;52.018;8.702;2023-05-20T01:23:49;71455.81;;;-144.30
60003;BMP280;46322;52.018;8.702;2023-05-20T01:28:50;71455.81;;;-144.30
60003;BMP280;46322;52.018;8.702;2023-05-20T01:33:50;71455.81;;;-144.30
60003;BMP280;46322;52.018;8.702;2023-05-20T01:38:53;71455.81;;;-144.30
60003;BMP280;46322;52.018;8.702;2023-05-20T01:43:53;71455.81;;;-144.30
60003;BMP280;46322;52.018;8.702;2023-05-20T01:48:54;71455.81;;;-144.30
60003;BMP280;46322;52.018;8.702;2023-05-20T01:53:54;71455.81;;;-144.30
60003;BMP280;46322;52.018;8.702;2023-05-20T01:58:54;71455.81;;;-144.30
60003;BMP280;46322;52.018;8.702;2023-05-20T02:03:54;71455.81;;;-144.30
60003;BMP280;46322;52.018;8.702;2023-05-20T02:08:54;71455.81;;;-144.30
60003;BMP280;46322;52.018;8.702;2023-05-20T02:13:55;71455.81;;;-144.30
60003;BMP280;46322;52.018;8.702;2023-05-20T02:18:55;71455.81;;;-144.30
60003;BMP280;46322;52.018;8.702;2023-05-20T02:23:55;71455.81;;;-144.30
60003;BMP280;46322;52.018;8.702;2023-05-20T02:28:55;71455.81;;;-144.30
60003;BMP280;46322;52.018;8.702;2023-05-20T02:33:55;71455.81;;;-144.30
60003;BMP280;46322;52.018;8.702;2023-05-20T02:38:55;71455.81;;;-144.30
60003;BMP280;46322;52.018;8.702;2023-05-20T02:43:55;71455.81;;;-144.30
60003;BMP280;46322;52.018;8.702;2023-05-20T02:48:56;71455.81;;;-144.30
60003;BMP280;46322;52.018;8.702;2023-05-20T02:53:56;71455.81;;;-144.30
60003;BMP280;46322;52.018;8.702;2023-05-20T02:58:56;71455.81;;;-144.30
60003;BMP280;46322;52.018;8.702;2023-05-20T03:03:56;71455.81;;;-144.30
60003;BMP280;46322;52.018;8.702;2023-05-20T03:08:56;71455.81;;;-144.30
60003;BMP280;46322;52.018;8.702;2023-05-20T03:13:57;71455.81;;;-144.30
60003;BMP280;46322;52.018;8.702;2023-05-20T03:18:57;71455.81;;;-144.30
60003;BMP280;46322;52.018;8.702;2023-05-20T03:23:57;71455.81;;;-144.30
60003;BMP280;46322;52.018;8.702;2023-05-20T03:28:57;71455.81;;;-144.30
60003;BMP280;46322;52.018;8.702;2023-05-20T03:33:57;71455.81;;;-144.30
60003;BMP280;46322;52.018;8.702;2023-05-20T03:38:57;71455.81;;;-144.30
60003;BMP280;46322;52.018;8.702;2023-05-20T03:43:57;71455.81;;;-144.30
60003;BMP280;46322;52.018;8.702;2023-05-20T03:48:58;71455.81;;;-144.30
60003;BMP280;46322;52.018;8.702;2023-05-20T03:53:58;71455.81;;;-144.30
60003;BMP280;46322;52.018;8.702;2023-05-20T03:58:58;71455.81;;;-144.30
60003;BMP280;46322;52.018;8.702;2023-05-20T04:03:58;71455.81;;;-144.30
60003;BMP280;46322;52.018;8.702;2023-05-20T04:08:58;71455.81;;;-144.30
60003;BMP280;46322;52.018;8.702;2023-05-20T04:13:58;71455.81;;;-144.30
60003;BMP280;46322;52.018;8.702;2023-05-20T04:18:58;71455.81;;;-144.30
60003;BMP280;46322;52.018;8.702;2023-05-20T04:23:59;71455.81;;;-144.30
60003;BMP280;46322;52.018;8.702;2023-05-20T04:28:59;71455.81;;;-144.30
60003;BMP280;46322;52.018;8.702;2023-05-20T04:33:59;71455.81;;;-144.30
60003;BMP280;46322;52.018;8.702;2023-05-20T04:38:59;71455.81;;;-144.30
60003;BMP280;46322;52.018;8.702;2023-05-20T04:43:59;71455.81;;;-144.30
60003;BMP280;46322;52.018;8.702;2023-05-20T04:48:59;71455.81;;;-144.30
60003;BMP280;46322;52.018;8.702;2023-05-20T04:53:59;71455.81;;;-144.30
60003;BMP280;46322;52.018;8.702;2023-05-20T04:59:00;71455.81;;;-144.30
60003;BMP280;46322;52.018;8.702;2023-05-20T05:04:00;71455.81;;;-144.30
60003;BMP280;46322;52.018;8.702;2023-05-20T05:09:00;71455.81;;;-144.30
60003;BMP280;46322;52.018;8.702;2023-05-20T05:14:01;71455.81;;;-144.30
60003;BMP280;46322;52.018;8.702;2023-05-20T05:19:01;71455.81;;;-144.30
60003;BMP280;46322;52.018;8.702;2023-05-20T05:24:01;71455.81;;;-144.30
60003;BMP280;46322;52.018;8.702;2023-05-20T05:29:01;71455.81;;;-144.30
60003;BMP280;46322;52.018;8.702;2023-05-20T05:34:01;71455.81;;;-144.30
60003;BMP280;46322;52.018;8.702;2023-05-20T05:39:01;71455.81;;;-144.30
60003;BMP280;46322;52.018;8.702;2023-05-20T05:44:03;71455.81;;;-144.30
60003;BMP280;46322;52.018;8.702;2023-05-20T05:49:03;71455.81;;;-144.30
60003;BMP280;46322;52.018;8.702;2023-05-20T05:54:03;71455.81;;;-144.30
60003;BMP280;46322;52.018;8.702;2023-05-20T05:59:03;71455.81;;;-144.30
60003;BMP280;46322;52.018;8.702;2023-05-20T06:04:03;71455.81;;;-144.30
60003;BMP280;46322;52.018;8.702;2023-05-20T06:09:04;71455.81;;;-144.30
60003;BMP280;46322;52.018;8.702;2023-05-20T06:14:04;71455.81;;;-144.30
60003;BMP280;46322;52.018;8.702;2023-05-20T06:19:04;71455.81;;;-144.30
60003;BMP280;46322;52.018;8.702;2023-05-20T06:24:04;71455.81;;;-144.30
60003;BMP280;46322;52.018;8.702;2023-05-20T06:29:04;71455.81;;;-144.30
60003;BMP280;46322;52.018;8.702;2023-05-20T06:34:05;71455.81;;;-144.30
60003;BMP280;46322;52.018;8.702;2023-05-20T06:39:05;71455.81;;;-144.30
60003;BMP280;46322;52.018;8.702;2023-05-20T06:44:05;71455.81;;;-144.30
60003;BMP280;46322;52.018;8.702;2023-05-20T06:49:05;71455.81;;;-144.30
60003;BMP280;46322;52.018;8.702;2023-05-20T06:54:05;71455.81;;;-144.30
60003;BMP280;46322;52.018;8.702;2023-05-20T06:59:06;71455.81;;;-144.30
60003;BMP280;46322;52.018;8.702;2023-05-20T07:04:06;71455.81;;;-144.30
60003;BMP280;46322;52.018;8.702;2023-05-20T07:09:06;71455.81;;;-144.30
60003;BMP280;46322;52.018;8.702;2023-05-20T07:14:06;71455.81;;;-144.30
60003;BMP280;46322;52.018;8.702;2023-05-20T07:19:06;71455.81;;;-144.30
60003;BMP280;46322;52.018;8.702;2023-05-20T07:24:06;71455.81;;;-144.30
60003;BMP280;46322;52.018;8.702;2023-05-20T07:29:07;71455.81;;;-144.30
60003;BMP280;46322;52.018;8.702;2023-05-20T07:34:07;71455.81;;;-144.30
60003;BMP280;46322;52.018;8.702;2023-05-20T07:39:07;71455.81;;;-144.30
60003;BMP280;46322;52.018;8.702;2023-05-20T07:44:07;71455.81;;;-144.30
60003;BMP280;46322;52.018;8.702;2023-05-20T07:49:08;71455.81;;;-144.30
60003;BMP280;46322;52.018;8.702;2023-05-20T07:54:08;71455.81;;;-144.30
60003;BMP280;46322;52.018;8.702;2023-05-20T07:59:08;71455.81;;;-144.30
60003;BMP280;46322;52.018;8.702;2023-05-20T08:04:08;71455.81;;;-144.30
60003;BMP280;46322;52.018;8.702;2023-05-20T08:09:08;71455.81;;;-144.30
60003;BMP280;46322;52.018;8.702;2023-05-20T08:14:08;71455.81;;;-144.30
60003;BMP280;46322;52.018;8.702;2023-05-20T08:19:09;71455.81;;;-144.30
60003;BMP280;46322;52.018;8.702;2023-05-20T08:24:09;71455.81;;;-144.30
60003;BMP280;46322;52.018;8.702;2023-05-20T08:29:09;71455.81;;;-144.30
60003;BMP280;46322;52.018;8.702;2023-05-20T08:34:09;71455.81;;;-144.30
60003;BMP280;46322;52.018;8.702;2023-05-20T08:39:09;100979.50;;;24.41
60003;BMP280;46322;52.018;8.702;2023-05-20T08:44:09;100979.09;;;23.80
60003;BMP280;46322;52.018;8.702;2023-05-20T08:49:10;71455.81;;;-144.30
60003;BMP280;46322;52.018;8.702;2023-05-20T08:54:10;71455.81;;;-144.30
60003;BMP280;46322;52.018;8.702;2023-05-20T08:59:11;71455.81;;;-144.30
60003;BMP280;46322;52.018;8.702;2023-05-20T09:04:12;71455.81;;;-144.30
60003;BMP280;46322;52.018;8.702;2023-05-20T09:09:12;71455.81;;;-144.30
60003;BMP280;46322;52.018;8.702;2023-05-20T09:14:12;71455.81;;;-144.30
60003;BMP280;46322;52.018;8.702;2023-05-20T09:19:13;71455.81;;;-144.30
60003;BMP280;46322;52.018;8.702;2023-05-20T09:24:13;71455.81;;;-144.30
60003;BMP280;46322;52.018;8.702;2023-05-20T09:29:13;71455.81;;;-144.30
60003;BMP280;46322;52.018;8.702;2023-05-20T09:34:13;100971.34;;;24.93
60003;BMP280;46322;52.018;8.702;2023-05-20T09:39:14;100940.53;;;23.41
60003;BMP280;46322;52.018;8.702;2023-05-20T09:44:15;71455.81;;;-144.30
60003;BMP280;46322;52.018;8.702;2023-05-20T09:49:15;100955.13;;;24.41
60003;BMP280;46322;52.018;8.702;2023-05-20T09:54:18;100970.78;;;24.67
60003;BMP280;46322;52.018;8.702;2023-05-20T09:59:20;100958.72;;;25.16
60003;BMP280;46322;52.018;8.702;2023-05-20T10:04:20;100960.53;;;24.45
60003;BMP280;46322;52.018;8.702;2023-05-20T10:09:35;100959.81;;;24.85
60003;BMP280;46322;52.018;8.702;2023-05-20T10:19:36;100953.59;;;25.56
60003;BMP280;46322;52.018;8.702;2023-05-20T10:24:37;100947.53;;;25.75
60003;BMP280;46322;52.018;8.702;2023-05-20T10:29:44;100944.19;;;26.18
60003;BMP280;46322;52.018;8.702;2023-05-20T10:34:46;100949.75;;;25.53
60003;BMP280;46322;52.018;8.702;2023-05-20T10:39:46;100949.59;;;25.34
60003;BMP280;46322;52.018;8.702;2023-05-20T10:44:46;100939.84;;;25.40
60003;BMP280;46322;52.018;8.702;2023-05-20T10:49:46;100938.44;;;27.41
60003;BMP280;46322;52.018;8.702;2023-05-20T10:54:53;100944.88;;;26.49
60003;BMP280;46322;52.018;8.702;2023-05-20T10:59:56;100946.00;;;24.69
60003;BMP280;46322;52.018;8.702;2023-05-20T11:04:56;100939.69;;;24.31
60003;BMP280;46322;52.018;8.702;2023-05-20T11:09:57;100931.03;;;25.59
60003;BMP280;46322;52.018;8.702;2023-05-20T11:14:57;100936.50;;;24.43
60003;BMP280;46322;52.018;8.702;2023-05-20T11:19:57;100933.00;;;24.91
60003;BMP280;46322;52.018;8.702;2023-05-20T11:24:57;100926.28;;;24.10
60003;BMP280;46322;52.018;8.702;2023-05-20T11:29:57;100921.34;;;25.31
60003;BMP280;46322;52.018;8.702;2023-05-20T11:34:58;100914.66;;;25.36
60003;BMP280;46322;52.018;8.702;2023-05-20T11:40:07;100912.66;;;26.47
60003;BMP280;46322;52.018;8.702;2023-05-20T11:45:11;100910.44;;;25.92
60003;BMP280;46322;52.018;8.702;2023-05-20T11:50:18;100918.75;;;26.08
60003;BMP280;46322;52.018;8.702;2023-05-20T11:55:19;100898.84;;;27.57
60003;BMP280;46322;52.018;8.702;2023-05-20T12:00:19;100902.75;;;27.00
60003;BMP280;46322;52.018;8.702;2023-05-20T12:05:20;100897.91;;;26.25
60003;BMP280;46322;52.018;8.702;2023-05-20T12:10:20;100886.72;;;26.43
60003;BMP280;46322;52.018;8.702;2023-05-20T12:15:20;100879.53;;;26.52
60003;BMP280;46322;52.018;8.702;2023-05-20T12:20:22;100869.66;;;25.95
60003;BMP280;46322;52.018;8.702;2023-05-20T12:25:22;100864.97;;;25.96
60003;BMP280;46322;52.018;8.702;2023-05-20T12:30:22;100864.72;;;25.87
60003;BMP280;46322;52.018;8.702;2023-05-20T12:35:44;100864.72;;;26.77
60003;BMP280;46322;52.018;8.702;2023-05-20T12:40:43;100869.13;;;27.94
60003;BMP280;46322;52.018;8.702;2023-05-20T12:45:43;100860.25;;;27.06
60003;BMP280;46322;52.018;8.702;2023-05-20T12:50:43;100858.91;;;27.14
60003;BMP280;46322;52.018;8.702;2023-05-20T12:55:44;100859.81;;;30.27
60003;BMP280;46322;52.018;8.702;2023-05-20T13:00:44;100849.50;;;28.45
60003;BMP280;46322;52.018;8.702;2023-05-20T13:05:44;100846.97;;;28.25
60003;BMP280;46322;52.018;8.702;2023-05-20T13:10:44;100841.69;;;28.02
60003;BMP280;46322;52.018;8.702;2023-05-20T13:15:44;100834.00;;;27.16
60003;BMP280;46322;52.018;8.702;2023-05-20T13:20:44;100824.97;;;26.63
60003;BMP280;46322;52.018;8.702;2023-05-20T13:25:45;100817.75;;;26.33
60003;BMP280;46322;52.018;8.702;2023-05-20T13:30:45;100813.91;;;26.54
60003;BMP280;46322;52.018;8.702;2023-05-20T13:35:45;100808.50;;;26.50
60003;BMP280;46322;52.018;8.702;2023-05-20T13:40:45;100803.63;;;27.17
60003;BMP280;46322;52.018;8.702;2023-05-20T13:45:45;100805.19;;;27.83
60003;BMP280;46322;52.018;8.702;2023-05-20T13:50:46;100798.72;;;27.77
60003;BMP280;46322;52.018;8.702;2023-05-20T13:55:46;100795.47;;;28.27
60003;BMP280;46322;52.018;8.702;2023-05-20T14:00:46;100783.03;;;27.97
60003;BMP280;46322;52.018;8.702;2023-05-20T14:05:46;100789.09;;;26.88
60003;BMP280;46322;52.018;8.702;2023-05-20T14:10:46;100785.97;;;28.31
60003;BMP280;46322;52.018;8.702;2023-05-20T14:15:46;100784.81;;;26.31
60003;BMP280;46322;52.018;8.702;2023-05-20T14:20:46;100785.63;;;26.28
60003;BMP280;46322;52.018;8.702;2023-05-20T14:25:47;100771.50;;;26.56
60003;BMP280;46322;52.018;8.702;2023-05-20T14:30:49;100770.09;;;27.04
60003;BMP280;46322;52.018;8.702;2023-05-20T14:35:49;100767.41;;;26.05
60003;BMP280;46322;52.018;8.702;2023-05-20T14:40:49;100770.44;;;26.50
60003;BMP280;46322;52.018;8.702;2023-05-20T14:45:49;100771.84;;;26.19
60003;BMP280;46322;52.018;8.702;2023-05-20T14:50:49;100770.19;;;26.45
60003;BMP280;46322;52.018;8.702;2023-05-20T14:55:49;100771.41;;;25.50
60003;BMP280;46322;52.018;8.702;2023-05-20T15:00:51;100770.47;;;25.61
60003;BMP280;46322;52.018;8.702;2023-05-20T15:05:51;100768.44;;;25.41
60003;BMP280;46322;52.018;8.702;2023-05-20T15:10:51;100764.03;;;25.24
60003;BMP280;46322;52.018;8.702;2023-05-20T15:15:52;100764.78;;;24.94
60003;BMP280;46322;52.018;8.702;2023-05-20T15:20:52;100772.31;;;25.13
60003;BMP280;46322;52.018;8.702;2023-05-20T15:25:52;100769.69;;;24.76
60003;BMP280;46322;52.018;8.702;2023-05-20T15:30:53;100762.88;;;24.61
60003;BMP280;46322;52.018;8.702;2023-05-20T15:35:53;100762.03;;;24.33
60003;BMP280;46322;52.018;8.702;2023-05-20T15:40:53;71455.81;;;24.06
60003;BMP280;46322;52.018;8.702;2023-05-20T15:45:53;71455.81;;;-144.30
60003;BMP280;46322;52.018;8.702;2023-05-20T15:50:53;100744.19;;;25.00
60003;BMP280;46322;52.018;8.702;2023-05-20T15:55:53;100744.41;;;24.15
60003;BMP280;46322;52.018;8.702;2023-05-20T16:00:54;100742.38;;;24.22
60003;BMP280;46322;52.018;8.702;2023-05-20T16:05:54;100743.22;;;24.16
60003;BMP280;46322;52.018;8.702;2023-05-20T16:10:54;100743.09;;;25.25
60003;BMP280;46322;52.018;8.702;2023-05-20T16:15:54;100739.63;;;24.94
60003;BMP280;46322;52.018;8.702;2023-05-20T16:20:55;100737.19;;;25.03
60003;BMP280;46322;52.018;8.702;2023-05-20T16:25:55;100728.78;;;25.71
60003;BMP280;46322;52.018;8.702;2023-05-20T16:30:55;71455.81;;;-144.30
60003;BMP280;46322;52.018;8.702;2023-05-20T16:35:55;71455.81;;;-144.30
60003;BMP280;46322;52.018;8.702;2023-05-20T16:40:55;71455.81;;;-144.30
60003;BMP280;46322;52.018;8.702;2023-05-20T16:45:56;71455.81;;;-144.30
60003;BMP280;46322;52.018;8.702;2023-05-20T16:50:56;71455.81;;;-144.30
60003;BMP280;46322;52.018;8.702;2023-05-20T16:55:56;71455.81;;;-144.30
60003;BMP280;46322;52.018;8.702;2023-05-20T17:00:56;71455.81;;;-144.30
60003;BMP280;46322;52.018;8.702;2023-05-20T17:05:56;71455.81;;;-144.30
60003;BMP280;46322;52.018;8.702;2023-05-20T17:10:56;71455.81;;;-144.30
60003;BMP280;46322;52.018;8.702;2023-05-20T17:15:58;100713.38;;;24.19
60003;BMP280;46322;52.018;8.702;2023-05-20T17:20:58;71455.81;;;-144.30
60003;BMP280;46322;52.018;8.702;2023-05-20T17:25:58;100727.81;;;24.43
60003;BMP280;46322;52.018;8.702;2023-05-20T17:30:58;71455.81;;;-144.30
60003;BMP280;46322;52.018;8.702;2023-05-20T17:35:59;100719.88;;;24.93
60003;BMP280;46322;52.018;8.702;2023-05-20T17:40:59;100730.28;;;24.68
60003;BMP280;46322;52.018;8.702;2023-05-20T17:45:59;100729.53;;;24.30
60003;BMP280;46322;52.018;8.702;2023-05-20T17:50:59;100721.75;;;23.91
60003;BMP280;46322;52.018;8.702;2023-05-20T17:55:59;71455.81;;;-144.30
60003;BMP280;46322;52.018;8.702;2023-05-20T18:00:59;71455.81;;;-144.30
60003;BMP280;46322;52.018;8.702;2023-05-20T18:05:59;71455.81;;;-144.30
60003;BMP280;46322;52.018;8.702;2023-05-20T18:11:00;71455.81;;;-144.30
60003;BMP280;46322;52.018;8.702;2023-05-20T18:16:00;71455.81;;;-144.30
60003;BMP280;46322;52.018;8.702;2023-05-20T18:21:00;71455.81;;;-144.30
60003;BMP280;46322;52.018;8.702;2023-05-20T18:26:00;71455.81;;;-144.30
60003;BMP280;46322;52.018;8.702;2023-05-20T18:31:00;71455.81;;;-144.30
60003;BMP280;46322;52.018;8.702;2023-05-20T18:36:01;71455.81;;;-144.30
60003;BMP280;46322;52.018;8.702;2023-05-20T18:41:01;100738.66;;;24.77
60003;BMP280;46322;52.018;8.702;2023-05-20T18:46:01;71455.81;;;-144.30
60003;BMP280;46322;52.018;8.702;2023-05-20T18:51:01;71455.81;;;-144.30
60003;BMP280;46322;52.018;8.702;2023-05-20T18:56:01;93217.50;;;24.65
60003;BMP280;46322;52.018;8.702;2023-05-20T19:01:01;71455.81;;;-144.30
60003;BMP280;46322;52.018;8.702;2023-05-20T19:06:01;71455.81;;;-144.30
60003;BMP280;46322;52.018;8.702;2023-05-20T19:11:02;71455.81;;;-144.30
60003;BMP280;46322;52.018;8.702;2023-05-20T19:16:02;71455.81;;;-144.30
60003;BMP280;46322;52.018;8.702;2023-05-20T19:21:02;71455.81;;;-144.30
60003;BMP280;46322;52.018;8.702;2023-05-20T19:26:03;71455.81;;;-144.30
60003;BMP280;46322;52.018;8.702;2023-05-20T19:31:03;71455.81;;;-144.30
60003;BMP280;46322;52.018;8.702;2023-05-20T19:36:04;71455.81;;;-144.30
60003;BMP280;46322;52.018;8.702;2023-05-20T19:41:04;71455.81;;;-144.30
60003;BMP280;46322;52.018;8.702;2023-05-20T19:46:04;71455.81;;;-144.30
60003;BMP280;46322;52.018;8.702;2023-05-20T19:51:04;71455.81;;;-144.30
60003;BMP280;46322;52.018;8.702;2023-05-20T19:56:05;71455.81;;;-144.30
60003;BMP280;46322;52.018;8.702;2023-05-20T20:01:05;71455.81;;;-144.30
60003;BMP280;46322;52.018;8.702;2023-05-20T20:06:05;71455.81;;;-144.30
60003;BMP280;46322;52.018;8.702;2023-05-20T20:11:05;71455.81;;;-144.30
60003;BMP280;46322;52.018;8.702;2023-05-20T20:16:06;71455.81;;;-144.30
60003;BMP280;46322;52.018;8.702;2023-05-20T20:21:06;71455.81;;;-144.30
60003;BMP280;46322;52.018;8.702;2023-05-20T20:26:06;71455.81;;;-144.30
60003;BMP280;46322;52.018;8.702;2023-05-20T20:31:06;71455.81;;;-144.30
60003;BMP280;46322;52.018;8.702;2023-05-20T20:36:06;71455.81;;;-144.30
60003;BMP280;46322;52.018;8.702;2023-05-20T20:41:07;71455.81;;;-144.30
60003;BMP280;46322;52.018;8.702;2023-05-20T20:46:07;71455.81;;;-144.30
60003;BMP280;46322;52.018;8.702;2023-05-20T20:51:07;71455.81;;;-144.30
60003;BMP280;46322;52.018;8.702;2023-05-20T20:56:08;71455.81;;;-144.30
60003;BMP280;46322;52.018;8.702;2023-05-20T21:01:08;71455.81;;;-144.30
60003;BMP280;46322;52.018;8.702;2023-05-20T21:06:08;71455.81;;;-144.30
60003;BMP280;46322;52.018;8.702;2023-05-20T21:11:09;71455.81;;;-144.30
60003;BMP280;46322;52.018;8.702;2023-05-20T21:16:09;71455.81;;;-144.30
60003;BMP280;46322;52.018;8.702;2023-05-20T21:21:09;71455.81;;;-144.30
60003;BMP280;46322;52.018;8.702;2023-05-20T21:26:09;71455.81;;;-144.30
60003;BMP280;46322;52.018;8.702;2023-05-20T21:31:09;71455.81;;;-144.30
60003;BMP280;46322;52.018;8.702;2023-05-20T21:36:09;71455.81;;;-144.30
60003;BMP280;46322;52.018;8.702;2023-05-20T21:41:10;71455.81;;;-144.30
60003;BMP280;46322;52.018;8.702;2023-05-20T21:46:10;71455.81;;;-144.30
60003;BMP280;46322;52.018;8.702;2023-05-20T21:51:10;71455.81;;;-144.30
60003;BMP280;46322;52.018;8.702;2023-05-20T21:56:10;71455.81;;;-144.30
60003;BMP280;46322;52.018;8.702;2023-05-20T22:01:10;71455.81;;;-144.30
60003;BMP280;46322;52.018;8.702;2023-05-20T22:06:10;71455.81;;;-144.30
60003;BMP280;46322;52.018;8.702;2023-05-20T22:11:11;71455.81;;;-144.30
60003;BMP280;46322;52.018;8.702;2023-05-20T22:16:11;71455.81;;;-144.30
60003;BMP280;46322;52.018;8.702;2023-05-20T22:21:11;71455.81;;;-144.30
60003;BMP280;46322;52.018;8.702;2023-05-20T22:26:11;71455.81;;;-144.30
60003;BMP280;46322;52.018;8.702;2023-05-20T22:31:11;71455.81;;;-144.30
60003;BMP280;46322;52.018;8.702;2023-05-20T22:36:12;71455.81;;;-144.30
60003;BMP280;46322;52.018;8.702;2023-05-20T22:41:12;71455.81;;;-144.30
60003;BMP280;46322;52.018;8.702;2023-05-20T22:46:12;71455.81;;;-144.30
60003;BMP280;46322;52.018;8.702;2023-05-20T22:51:12;71455.81;;;-144.30
60003;BMP280;46322;52.018;8.702;2023-05-20T22:56:13;71455.81;;;-144.30
60003;BMP280;46322;52.018;8.702;2023-05-20T23:01:13;71455.81;;;-144.30
60003;BMP280;46322;52.018;8.702;2023-05-20T23:06:13;71455.81;;;-144.30
60003;BMP280;46322;52.018;8.702;2023-05-20T23:11:13;71455.81;;;-144.30
60003;BMP280;46322;52.018;8.702;2023-05-20T23:16:13;71455.81;;;-144.30
60003;BMP280;46322;52.018;8.702;2023-05-20T23:21:13;71455.81;;;-144.30
60003;BMP280;46322;52.018;8.702;2023-05-20T23:26:14;71455.81;;;-144.30
60003;BMP280;46322;52.018;8.702;2023-05-20T23:31:14;71455.81;;;-144.30
60003;BMP280;46322;52.018;8.702;2023-05-20T23:36:14;71455.81;;;-144.30
60003;BMP280;46322;52.018;8.702;2023-05-20T23:41:14;71455.81;;;-144.30
60003;BMP280;46322;52.018;8.702;2023-05-20T23:46:14;71455.81;;;-144.30
60003;BMP280;46322;52.018;8.702;2023-05-20T23:51:14;71455.81;;;-144.30
60003;BMP280;46322;52.018;8.702;2023-05-20T23:56:14;71455.81;;;-144.30
